Oakwood Shores, Indiana
Current Conditions -  °F | °C
As of 1:55 AM on Thursday 29 Jan 2015 (Local Time) from KANQ Reporting Station
Overcast Overcast  
Wind Chill: 16°   Ceiling: 9500
Heat Index: 27°   Visibility: 10mi
Dew Point: 19°   Wind: 12mph
Humidity: 74%   Direction: 160°SSE
Pressure: 29.96"   Gusts: NA
Location:  41.5557°N, 84.8806°W
Report Text: KANQ 290655Z AUTO 16010KT 10SM OVC095 M03/M07 A2996 RMK
Loading
Personal Weather Stations






























Interactive Weather Map New forecast layout! Learn more

10-Day Weather Forecast

Advertisements
Track Severe Weather on mobile